Time;durP1;ratioP1;P1;durP2;ratioP2;P2;SDS_P1;SDS_P2;PMS_P1;PMS_P2;Temp;Humidity;BMP_temperature;BMP_pressure;BME280_temperature;BME280_humidity;BME280_pressure;Samples;Min_cycle;Max_cycle;Signal;HPM_P1;HPM_P2
2021/04/28 00:00:35;;;;;;;16.30;8.30;;;;;;;15.91;64.20;100533.19;143741;703;46008;-73
2021/04/28 00:03:10;;;;;;;17.10;7.30;;;;;;;15.92;63.88;100555.19;143741;711;46018;-75
2021/04/28 00:05:38;;;;;;;12.73;6.97;;;;;;;15.88;63.68;100558.03;143739;665;46907;-78
2021/04/28 00:08:06;;;;;;;14.55;7.50;;;;;;;16.02;63.33;100575.81;143739;661;47008;-78
2021/04/28 00:10:40;;;;;;;15.90;7.93;;;;;;;16.01;63.57;100575.91;143739;626;47008;-78
2021/04/28 00:13:09;;;;;;;;;;;;;;;15.88;64.17;100558.03;143745;979;47010;-81
2021/04/28 00:15:40;;;;;;;14.40;8.55;;;;;;;15.95;63.97;100545.31;143749;575;46019;-78
2021/04/28 00:18:07;;;;;;;16.12;9.18;;;;;;;15.81;64.66;100524.84;143741;673;47010;-79
2021/04/28 00:20:39;;;;;;;14.57;8.48;;;;;;;15.93;64.86;100527.78;143739;586;46020;-80
2021/04/28 00:23:08;;;;;;;17.83;8.43;;;;;;;15.78;65.60;100543.50;143743;679;46019;-76
2021/04/28 00:25:36;;;;;;;18.90;8.80;;;;;;;15.83;64.29;100553.91;143739;579;47012;-81
2021/04/28 00:28:03;;;;;;;17.85;9.10;;;;;;;15.83;65.33;100591.81;143742;654;46010;-80
2021/04/28 00:30:31;;;;;;;15.23;8.43;;;;;;;15.69;66.78;100618.97;143741;625;46020;-81
2021/04/28 00:32:59;;;;;;;15.90;8.55;;;;;;;15.78;65.40;100622.06;143737;579;47018;-80
2021/04/28 00:35:26;;;;;;;13.15;8.50;;;;;;;15.85;65.84;100619.06;143736;612;47020;-75
2021/04/28 00:37:54;;;;;;;15.68;8.43;;;;;;;15.92;64.99;100622.25;143740;617;46019;-81
2021/04/28 00:40:31;;;;;;;16.08;8.27;;;;;;;15.88;65.17;100632.16;143738;631;46020;-82
2021/04/28 00:42:59;;;;;;;15.95;8.40;;;;;;;15.80;65.02;100644.06;143745;582;46010;-81
2021/04/28 00:45:28;;;;;;;19.00;8.05;;;;;;;15.74;65.20;100631.97;143733;651;47021;-81
2021/04/28 00:47:56;;;;;;;19.55;8.40;;;;;;;15.74;65.32;100603.69;143740;585;47012;-78
2021/04/28 00:50:36;;;;;;;17.10;8.57;;;;;;;15.68;65.86;100574.91;143738;635;46907;-80
2021/04/28 00:53:08;;;;;;;16.75;9.40;;;;;;;15.61;65.60;100576.16;143742;636;47012;-82
2021/04/28 00:55:36;;;;;;;15.75;8.52;;;;;;;15.51;66.71;100585.47;143735;602;47020;-79
2021/04/28 00:58:05;;;;;;;16.37;9.63;;;;;;;15.44;67.31;100584.09;143741;655;46010;-80
2021/04/28 01:00:34;;;;;;;20.25;9.77;;;;;;;15.24;69.46;100570.06;143741;586;46908;-78
2021/04/28 01:03:02;;;;;;;17.52;8.43;;;;;;;15.33;68.02;100574.03;143740;629;46020;-84
2021/04/28 01:05:29;;;;;;;14.32;8.93;;;;;;;15.45;66.59;100567.28;143738;564;46020;-80
2021/04/28 01:07:57;;;;;;;14.57;8.85;;;;;;;15.52;66.15;100573.97;143738;655;47010;-82
2021/04/28 01:10:35;;;;;;;12.48;8.57;;;;;;;15.50;67.57;100559.94;143737;575;46022;-77
2021/04/28 01:13:04;;;;;;;15.77;8.73;;;;;;;15.50;65.92;100542.31;143739;574;47010;-77
2021/04/28 01:15:34;;;;;;;15.23;8.70;;;;;;;15.61;65.64;100557.62;143741;569;46012;-80
2021/04/28 01:18:03;;;;;;;13.43;8.60;;;;;;;15.66;65.45;100573.25;143740;680;46018;-81
2021/04/28 01:20:36;;;;;;;14.45;8.75;;;;;;;15.52;67.08;100605.72;143737;571;47011;-81
2021/04/28 01:23:11;;;;;;;17.23;9.18;;;;;;;15.48;67.26;100620.88;143742;599;47013;-79
2021/04/28 01:25:40;;;;;;;17.23;9.20;;;;;;;15.67;65.38;100638.50;143739;681;46020;-78
2021/04/28 01:28:21;;;;;;;14.10;9.07;;;;;;;15.63;65.61;100643.09;143741;585;46010;-74
2021/04/28 01:31:12;;;;;;;15.77;8.50;;;;;;;15.68;65.44;100656.09;143739;659;46020;-76
2021/04/28 01:33:48;;;;;;;17.73;9.60;;;;;;;15.63;65.81;100669.56;143741;644;47012;-77
2021/04/28 01:36:23;;;;;;;15.77;8.88;;;;;;;15.58;65.84;100666.28;143734;569;47014;-75
2021/04/28 01:38:52;;;;;;;;;;;;;;;15.62;65.90;100651.09;143745;983;46018;-75
2021/04/28 01:41:20;;;;;;;14.70;8.60;;;;;;;15.53;66.28;100637.41;143748;596;47008;-79
2021/04/28 01:43:48;;;;;;;14.60;8.65;;;;;;;15.45;66.45;100626.34;143741;564;47010;-77
2021/04/28 01:46:17;;;;;;;15.07;8.95;;;;;;;15.43;66.50;100612.31;143737;632;47023;-79
2021/04/28 01:48:46;;;;;;;15.77;9.40;;;;;;;15.44;66.53;100594.66;143742;571;46008;-77
2021/04/28 01:51:15;;;;;;;16.15;8.85;;;;;;;15.44;66.62;100584.94;143739;644;47008;-76
2021/04/28 01:53:43;;;;;;;14.70;9.50;;;;;;;15.44;66.23;100568.22;143741;597;50010;-78
2021/04/28 01:56:11;;;;;;;16.00;9.38;;;;;;;15.45;66.05;100549.63;143740;593;46018;-75
2021/04/28 01:58:41;;;;;;;18.17;10.15;;;;;;;15.50;66.06;100538.78;143741;565;46008;-73
2021/04/28 02:01:09;;;;;;;19.65;9.00;;;;;;;15.53;65.87;100536.00;143736;581;47008;-81
2021/04/28 02:03:37;;;;;;;19.73;9.82;;;;;;;15.57;65.75;100534.91;143739;629;47008;-79
2021/04/28 02:06:06;;;;;;;17.17;9.45;;;;;;;15.62;65.85;100532.00;143739;641;47010;-81
2021/04/28 02:08:34;;;;;;;15.80;8.75;;;;;;;15.66;65.36;100528.28;143738;630;46018;-82
2021/04/28 02:11:03;;;;;;;17.20;9.13;;;;;;;15.62;65.44;100527.56;143740;593;47008;-76
2021/04/28 02:13:42;;;;;;;17.65;9.80;;;;;;;15.52;65.44;100529.00;143740;569;47010;-72
2021/04/28 02:16:10;;;;;;;17.40;9.65;;;;;;;15.53;65.34;100533.34;143742;620;46018;-73
2021/04/28 02:18:39;;;;;;;18.98;9.38;;;;;;;15.53;65.14;100530.72;143738;581;46018;-73
2021/04/28 02:21:07;;;;;;;15.20;9.43;;;;;;;15.52;65.10;100534.28;143738;578;46026;-77
2021/04/28 02:23:42;;;;;;;16.92;9.82;;;;;;;15.43;65.24;100540.03;143741;608;47010;-83
2021/04/28 02:26:09;;;;;;;16.40;9.05;;;;;;;15.38;65.35;100537.63;143739;569;46018;-84
2021/04/28 02:28:36;;;;;;;16.27;9.40;;;;;;;15.43;65.12;100537.38;143742;591;46009;-84
2021/04/28 02:31:04;;;;;;;19.17;9.63;;;;;;;15.38;64.86;100535.84;143741;570;46020;-84
2021/04/28 02:33:32;;;;;;;19.60;9.18;;;;;;;15.37;64.97;100528.81;143740;609;46022;-86
2021/04/28 02:35:59;;;;;;;16.70;9.00;;;;;;;15.43;64.86;100521.53;143738;654;47011;-84
2021/04/28 02:38:46;;;;;;;20.08;9.27;;;;;;;15.39;64.69;100529.63;143739;580;47010;-77
2021/04/28 02:41:14;;;;;;;17.15;8.88;;;;;;;15.40;65.09;100531.34;143740;691;46020;-80
2021/04/28 02:43:42;;;;;;;15.35;8.40;;;;;;;15.39;64.98;100526.97;143740;602;47008;-79
2021/04/28 02:46:13;;;;;;;15.57;8.80;;;;;;;15.34;65.04;100528.16;143739;608;46022;-81
2021/04/28 02:48:43;;;;;;;14.82;8.63;;;;;;;15.26;65.21;100522.38;143743;594;46008;-79
2021/04/28 02:51:11;;;;;;;14.00;8.40;;;;;;;15.21;65.04;100527.91;143740;590;47008;-80
2021/04/28 02:53:44;;;;;;;13.98;8.20;;;;;;;15.13;64.87;100522.13;143740;598;46008;-80
2021/04/28 02:56:12;;;;;;;16.87;8.65;;;;;;;15.13;65.13;100519.50;143739;579;46477;-82
2021/04/28 02:58:40;;;;;;;14.30;7.72;;;;;;;15.15;64.99;100509.72;143738;606;47010;-83
2021/04/28 03:01:08;;;;;;;15.40;8.20;;;;;;;15.07;65.50;100504.78;143741;659;46020;-80
2021/04/28 03:03:39;;;;;;;14.48;8.07;;;;;;;15.04;65.20;100508.44;143741;678;46018;-79
2021/04/28 03:06:09;;;;;;;15.50;8.20;;;;;;;14.96;65.46;100509.75;143738;623;47916;-81
2021/04/28 03:08:38;;;;;;;14.20;8.27;;;;;;;15.00;65.20;100512.16;143741;625;46018;-81
2021/04/28 03:11:06;;;;;;;15.77;8.93;;;;;;;14.89;65.17;100509.22;143738;605;47008;-81
2021/04/28 03:13:34;;;;;;;13.35;7.82;;;;;;;14.93;65.13;100531.06;143741;586;47010;-76
2021/04/28 03:16:03;;;;;;;14.25;8.23;;;;;;;14.95;65.18;100535.31;143738;582;47010;-76
2021/04/28 03:18:30;;;;;;;15.38;8.50;;;;;;;14.99;65.67;100531.59;143740;571;47008;-80
2021/04/28 03:21:01;;;;;;;20.05;8.75;;;;;;;14.95;65.43;100534.47;143739;585;46021;-78
2021/04/28 03:23:28;;;;;;;13.35;8.20;;;;;;;14.98;65.65;100539.59;143743;632;46008;-87
2021/04/28 03:25:59;;;;;;;17.77;8.88;;;;;;;14.91;66.20;100549.63;143740;594;46907;-88
2021/04/28 03:28:26;;;;;;;21.23;9.15;;;;;;;14.92;66.02;100543.41;143739;625;47010;-81
2021/04/28 03:30:53;;;;;;;16.42;9.55;;;;;;;14.96;66.12;100546.78;143743;652;46008;-82
2021/04/28 03:33:20;;;;;;;18.20;8.70;;;;;;;14.94;65.98;100551.28;143742;593;47010;-85
2021/04/28 03:35:48;;;;;;;19.75;9.18;;;;;;;14.94;66.06;100559.19;143740;583;47908;-86
2021/04/28 03:38:16;;;;;;;17.05;9.10;;;;;;;14.91;66.38;100546.97;143742;600;46008;-79
2021/04/28 03:40:44;;;;;;;14.68;8.90;;;;;;;14.93;66.58;100563.63;143735;578;47008;-80
2021/04/28 03:43:12;;;;;;;20.83;9.63;;;;;;;14.88;66.37;100576.22;143743;605;47010;-80
2021/04/28 03:45:39;;;;;;;15.65;8.93;;;;;;;14.87;67.16;100575.38;143739;587;46018;-82
2021/04/28 03:48:07;;;;;;;15.68;9.30;;;;;;;14.88;66.89;100584.16;143742;596;46008;-87
2021/04/28 03:50:34;;;;;;;19.65;9.30;;;;;;;14.98;66.38;100581.91;143739;569;47006;-81
2021/04/28 03:53:02;;;;;;;16.92;9.68;;;;;;;14.83;66.38;100586.16;143742;607;47010;-81
2021/04/28 03:55:29;;;;;;;20.67;9.75;;;;;;;14.95;66.09;100593.50;143736;616;47020;-80
2021/04/28 03:57:56;;;;;;;18.98;9.60;;;;;;;14.97;66.32;100585.50;143742;616;46019;-80
2021/04/28 04:00:24;;;;;;;19.23;9.18;;;;;;;14.98;66.06;100597.78;143738;626;46020;-78
2021/04/28 04:02:51;;;;;;;16.67;9.45;;;;;;;15.04;65.86;100598.34;143740;591;47008;-84
2021/04/28 04:05:18;;;;;;;18.87;10.07;;;;;;;15.04;65.98;100590.41;143739;574;46018;-84
2021/04/28 04:07:45;;;;;;;19.95;9.52;;;;;;;15.18;66.16;100612.69;143741;566;46008;-84
2021/04/28 04:10:13;;;;;;;18.25;9.90;;;;;;;15.19;65.92;100620.53;143742;620;46010;-84
2021/04/28 04:12:40;;;;;;;19.60;10.45;;;;;;;15.25;65.98;100626.47;143738;593;47008;-84
2021/04/28 04:15:09;;;;;;;22.45;12.85;;;;;;;15.23;66.13;100634.47;143741;567;45907;-85
2021/04/28 04:17:37;;;;;;;25.17;13.15;;;;;;;15.33;66.00;100629.59;143740;574;47008;-81
2021/04/28 04:20:06;;;;;;;24.10;12.88;;;;;;;15.40;65.91;100628.34;143740;585;47008;-77
2021/04/28 04:22:34;;;;;;;27.55;12.50;;;;;;;15.45;66.30;100633.44;143742;638;46018;-74
2021/04/28 04:25:01;;;;;;;21.52;12.57;;;;;;;15.50;66.24;100642.84;143738;666;47020;-76
2021/04/28 04:27:28;;;;;;;25.88;13.48;;;;;;;15.61;66.16;100644.09;143737;576;47008;-76
2021/04/28 04:29:55;;;;;;;26.98;13.62;;;;;;;15.66;66.17;100648.22;143740;587;45021;-76
2021/04/28 04:32:22;;;;;;;26.00;12.90;;;;;;;15.76;65.99;100642.47;143738;563;47020;-75
2021/04/28 04:34:49;;;;;;;24.08;13.82;;;;;;;15.82;65.85;100648.34;143737;571;47010;-76
2021/04/28 04:37:17;;;;;;;23.92;13.43;;;;;;;15.76;66.19;100631.88;143740;584;46008;-75
2021/04/28 04:39:44;;;;;;;31.20;14.77;;;;;;;15.93;65.53;100650.44;143738;579;46020;-75
2021/04/28 04:42:12;;;;;;;31.50;14.75;;;;;;;16.03;65.73;100664.06;143741;564;47006;-75
2021/04/28 04:44:43;;;;;;;25.73;15.00;;;;;;;16.08;65.82;100657.59;143735;569;46010;-75
2021/04/28 04:47:10;;;;;;;25.80;13.80;;;;;;;16.16;65.71;100661.66;143738;677;46008;-76
2021/04/28 04:49:39;;;;;;;23.77;13.55;;;;;;;16.23;65.87;100673.63;143737;577;46019;-76
2021/04/28 04:52:07;;;;;;;27.08;14.13;;;;;;;16.33;65.91;100666.88;143738;582;47010;-75
2021/04/28 04:54:34;;;;;;;22.75;13.43;;;;;;;16.45;65.84;100664.56;143737;692;46020;-79
2021/04/28 04:57:01;;;;;;;22.58;13.30;;;;;;;16.53;65.70;100662.34;143738;594;46008;-81
2021/04/28 04:59:29;;;;;;;23.05;12.65;;;;;;;16.62;66.26;100672.47;143739;700;46021;-81
2021/04/28 05:01:56;;;;;;;28.90;13.88;;;;;;;16.68;65.92;100661.50;143738;599;46018;-78
2021/04/28 05:04:23;;;;;;;23.98;12.82;;;;;;;16.79;65.83;100676.00;143735;569;47010;-74
2021/04/28 05:06:53;;;;;;;32.80;12.73;;;;;;;16.87;65.48;100673.78;143738;570;46008;-74
2021/04/28 05:09:22;;;;;;;26.10;12.75;;;;;;;16.96;65.26;100670.63;143740;585;46008;-82
2021/04/28 05:11:49;;;;;;;19.48;11.60;;;;;;;17.04;65.56;100652.47;143740;618;46017;-81
2021/04/28 05:14:16;;;;;;;18.98;11.30;;;;;;;17.09;65.48;100642.47;143739;695;46018;-81
2021/04/28 05:16:43;;;;;;;20.33;11.27;;;;;;;17.24;65.27;100656.66;143739;604;47008;-75
2021/04/28 05:19:10;;;;;;;21.15;11.30;;;;;;;17.35;64.98;100656.06;143735;564;47008;-77
2021/04/28 05:21:38;;;;;;;20.77;11.65;;;;;;;17.51;65.14;100655.16;143737;582;46021;-84
2021/04/28 05:24:06;;;;;;;19.65;11.05;;;;;;;17.65;64.85;100657.03;143738;613;46010;-81
2021/04/28 05:26:33;;;;;;;31.05;12.73;;;;;;;17.71;64.44;100657.50;143738;579;46018;-77
2021/04/28 05:29:00;;;;;;;24.37;11.85;;;;;;;17.71;64.26;100659.31;143739;592;47008;-79
2021/04/28 05:31:27;;;;;;;18.52;10.77;;;;;;;17.77;64.78;100659.81;143739;624;46020;-80
2021/04/28 05:33:54;;;;;;;14.82;9.93;;;;;;;17.86;64.44;100655.75;143738;599;47010;-78
2021/04/28 05:36:21;;;;;;;23.73;10.10;;;;;;;17.88;64.47;100661.84;143738;599;45019;-86
2021/04/28 05:38:49;;;;;;;20.88;10.30;;;;;;;17.94;64.49;100668.63;143732;587;47008;-83
2021/04/28 05:41:16;;;;;;;22.15;10.82;;;;;;;18.02;63.43;100671.66;143739;594;46018;-81
2021/04/28 05:43:43;;;;;;;18.27;11.27;;;;;;;17.97;62.84;100663.13;143737;614;46023;-81
2021/04/28 05:46:10;;;;;;;14.80;9.18;;;;;;;18.11;63.39;100667.59;143738;594;47010;-79
2021/04/28 05:48:37;;;;;;;17.58;10.75;;;;;;;18.13;63.53;100671.03;143738;641;46020;-79
2021/04/28 05:51:05;;;;;;;19.60;10.23;;;;;;;18.30;63.29;100666.50;143740;600;47011;-78
2021/04/28 05:53:32;;;;;;;14.32;10.02;;;;;;;18.28;62.43;100674.56;143738;689;46029;-78
2021/04/28 05:56:07;;;;;;;17.90;10.88;;;;;;;18.25;62.96;100672.94;143737;598;47008;-78
2021/04/28 05:58:34;;;;;;;20.00;10.98;;;;;;;18.17;61.65;100679.69;143738;572;46008;-79
2021/04/28 06:01:02;;;;;;;20.75;11.30;;;;;;;18.26;62.45;100679.97;143740;605;46016;-78
2021/04/28 06:03:29;;;;;;;16.02;10.63;;;;;;;18.17;62.71;100677.87;143737;572;46010;-78
2021/04/28 06:05:56;;;;;;;16.42;9.82;;;;;;;18.17;61.77;100690.31;143738;595;46019;-78
2021/04/28 06:08:24;;;;;;;16.40;9.60;;;;;;;18.30;63.03;100699.22;143736;564;46018;-90
2021/04/28 06:10:51;;;;;;;13.93;7.87;;;;;;;18.21;62.23;100690.03;143741;603;47008;-83
2021/04/28 06:13:18;;;;;;;16.12;7.93;;;;;;;18.16;62.93;100697.41;143739;599;46010;-79
2021/04/28 06:15:45;;;;;;;14.82;8.23;;;;;;;18.04;63.02;100687.50;143739;582;46008;-80
2021/04/28 06:18:12;;;;;;;17.58;9.40;;;;;;;17.92;63.02;100697.09;143736;570;46026;-81
2021/04/28 06:20:40;;;;;;;13.32;8.18;;;;;;;17.87;63.09;100693.81;143738;589;46017;-75
2021/04/28 06:23:07;;;;;;;11.40;7.32;;;;;;;18.20;63.34;100680.34;143736;657;47010;-89
2021/04/28 06:25:34;;;;;;;14.38;7.70;;;;;;;18.15;62.74;100677.13;143739;566;46018;-74
2021/04/28 06:28:01;;;;;;;13.05;7.05;;;;;;;18.26;62.60;100673.78;143740;701;47011;-73
2021/04/28 06:30:28;;;;;;;11.68;7.10;;;;;;;18.34;62.16;100660.03;143739;563;46008;-75
2021/04/28 06:32:55;;;;;;;14.20;7.20;;;;;;;18.50;62.31;100651.97;143735;578;47010;-75
2021/04/28 06:35:22;;;;;;;12.02;6.70;;;;;;;18.62;62.53;100640.56;143738;572;46019;-75
2021/04/28 06:37:50;;;;;;;16.75;8.05;;;;;;;18.72;61.90;100643.50;143737;601;46012;-75
2021/04/28 06:40:17;;;;;;;11.85;7.90;;;;;;;18.52;61.40;100639.44;143739;576;47010;-75
2021/04/28 06:42:44;;;;;;;13.73;8.07;;;;;;;18.54;61.64;100641.03;143737;730;47010;-77
2021/04/28 06:45:11;;;;;;;13.75;7.80;;;;;;;18.52;62.03;100650.94;143739;563;46018;-76
2021/04/28 06:47:39;;;;;;;16.35;7.55;;;;;;;18.39;62.05;100653.47;143737;588;46025;-76
2021/04/28 06:50:09;;;;;;;12.52;6.75;;;;;;;18.57;61.51;100658.63;143741;570;46008;-76
2021/04/28 06:52:37;;;;;;;14.07;7.30;;;;;;;18.39;61.05;100665.94;143737;653;46010;-76
2021/04/28 06:55:06;;;;;;;11.40;7.03;;;;;;;18.58;60.97;100673.63;143739;604;46008;-76
2021/04/28 06:57:33;;;;;;;11.73;6.85;;;;;;;18.54;61.35;100674.75;143734;590;47008;-76
2021/04/28 07:00:00;;;;;;;12.45;7.22;;;;;;;18.49;61.82;100677.69;143739;570;46018;-80
2021/04/28 07:02:28;;;;;;;11.82;6.62;;;;;;;18.49;61.50;100684.81;143733;625;49018;-75
2021/04/28 07:04:55;;;;;;;18.67;6.85;;;;;;;18.52;60.70;100681.97;143739;564;46008;-78
2021/04/28 07:07:22;;;;;;;16.05;6.47;;;;;;;18.56;60.85;100678.16;143739;569;46018;-74
2021/04/28 07:09:50;;;;;;;21.87;6.90;;;;;;;18.52;59.83;100674.87;143740;593;47010;-75
2021/04/28 07:12:17;;;;;;;13.98;6.50;;;;;;;18.75;60.66;100672.56;143735;681;46012;-73
2021/04/28 07:14:45;;;;;;;12.95;6.70;;;;;;;18.71;60.13;100684.34;143737;573;46018;-75
2021/04/28 07:17:12;;;;;;;16.27;6.70;;;;;;;18.71;59.70;100676.34;143739;635;46018;-74
2021/04/28 07:19:39;;;;;;;10.10;6.85;;;;;;;18.85;60.21;100681.69;143740;581;47011;-77
2021/04/28 07:22:06;;;;;;;10.70;6.32;;;;;;;18.96;60.12;100658.88;143737;585;46026;-72
2021/04/28 07:24:34;;;;;;;10.60;6.03;;;;;;;19.33;59.41;100672.44;143739;593;46008;-75
2021/04/28 07:27:01;;;;;;;11.48;6.50;;;;;;;19.39;58.65;100670.25;143737;605;46021;-79
2021/04/28 07:29:28;;;;;;;11.23;6.10;;;;;;;19.49;57.92;100669.66;143737;569;47018;-77
2021/04/28 07:31:57;;;;;;;13.00;6.10;;;;;;;19.61;58.85;100664.37;143733;724;47020;-76
2021/04/28 07:34:24;;;;;;;10.77;6.15;;;;;;;19.69;58.27;100653.19;143737;569;47009;-73
2021/04/28 07:36:51;;;;;;;10.85;6.07;;;;;;;20.00;57.46;100661.81;143738;644;47008;-76
2021/04/28 07:39:18;;;;;;;12.70;6.53;;;;;;;20.10;57.52;100662.88;143741;604;47010;-76
2021/04/28 07:41:46;;;;;;;12.90;6.37;;;;;;;20.20;56.00;100652.44;143734;581;47020;-72
2021/04/28 07:44:14;;;;;;;10.95;6.57;;;;;;;20.20;56.79;100670.22;143738;605;47010;-74
2021/04/28 07:46:42;;;;;;;11.57;6.37;;;;;;;20.07;56.30;100672.91;143738;569;47006;-74
2021/04/28 07:49:09;;;;;;;12.25;7.00;;;;;;;20.05;56.86;100680.13;143738;588;47006;-74
2021/04/28 07:51:37;;;;;;;11.82;6.95;;;;;;;20.06;57.03;100666.69;143734;571;47020;-75
2021/04/28 07:54:05;;;;;;;11.32;6.60;;;;;;;20.44;56.50;100663.19;143737;616;46018;-74
2021/04/28 07:56:32;;;;;;;12.02;7.25;;;;;;;20.41;55.35;100655.41;143738;595;47008;-74
2021/04/28 07:59:00;;;;;;;10.85;6.60;;;;;;;20.61;54.97;100658.47;143740;619;47010;-74
2021/04/28 08:01:27;;;;;;;14.13;6.72;;;;;;;20.65;54.09;100656.44;143738;570;46018;-74
2021/04/28 08:03:54;;;;;;;11.52;7.12;;;;;;;20.61;54.68;100654.00;143738;585;47010;-74
2021/04/28 08:06:21;;;;;;;12.68;6.78;;;;;;;20.73;55.37;100665.62;143737;611;47010;-74
2021/04/28 08:08:49;;;;;;;13.18;7.05;;;;;;;20.61;54.49;100667.34;143739;615;47010;-75
2021/04/28 08:11:16;;;;;;;10.77;6.25;;;;;;;20.60;54.25;100681.63;143736;614;47022;-75
2021/04/28 08:13:43;;;;;;;12.57;6.40;;;;;;;20.66;54.04;100688.34;143739;626;46008;-74
2021/04/28 08:16:11;;;;;;;11.00;6.32;;;;;;;20.73;54.52;100694.97;143738;589;47008;-73
2021/04/28 08:18:38;;;;;;;13.57;6.87;;;;;;;20.39;54.09;100689.31;143739;613;46019;-74
2021/04/28 08:21:05;;;;;;;10.70;5.80;;;;;;;20.43;53.59;100698.81;143738;570;47010;-74
2021/04/28 08:23:32;;;;;;;12.07;6.18;;;;;;;20.65;53.95;100693.78;143739;570;47008;-74
2021/04/28 08:26:02;;;;;;;10.73;5.40;;;;;;;20.63;52.50;100696.56;143737;567;46021;-74
2021/04/28 08:28:30;;;;;;;9.65;5.47;;;;;;;20.40;53.47;100685.69;143735;585;47008;-73
2021/04/28 08:30:57;;;;;;;15.10;5.87;;;;;;;20.68;53.50;100682.91;143736;618;46030;-74
2021/04/28 08:33:25;;;;;;;9.40;5.53;;;;;;;20.72;52.98;100679.94;143740;623;46008;-74
2021/04/28 08:35:52;;;;;;;13.62;6.47;;;;;;;20.82;52.98;100671.25;143740;569;46008;-74
2021/04/28 08:38:19;;;;;;;12.88;6.00;;;;;;;20.89;52.29;100677.87;143740;650;47010;-74
2021/04/28 08:40:47;;;;;;;10.55;5.75;;;;;;;20.81;52.61;100672.25;143737;618;46019;-73
2021/04/28 08:43:14;;;;;;;11.93;5.78;;;;;;;20.68;53.73;100677.56;143739;590;46010;-74
2021/04/28 08:45:42;;;;;;;8.00;5.12;;;;;;;20.65;53.00;100672.44;143738;613;47008;-74
2021/04/28 08:48:09;;;;;;;11.23;6.10;;;;;;;20.70;53.33;100668.53;143738;590;47008;-74
2021/04/28 08:50:36;;;;;;;11.68;5.70;;;;;;;20.63;52.71;100681.41;143736;660;46023;-75
2021/04/28 08:53:04;;;;;;;11.63;6.47;;;;;;;20.62;52.24;100685.03;143739;572;47008;-75
2021/04/28 08:55:31;;;;;;;15.05;6.20;;;;;;;20.43;53.70;100696.12;143737;639;47008;-74
2021/04/28 08:57:58;;;;;;;13.18;6.50;;;;;;;20.31;54.24;100712.16;143739;572;47008;-74
2021/04/28 09:00:26;;;;;;;14.40;6.85;;;;;;;20.40;54.03;100706.19;143737;598;46018;-74
2021/04/28 09:03:01;;;;;;;15.50;7.50;;;;;;;20.44;53.95;100703.19;143739;575;46010;-73
2021/04/28 09:05:32;;;;;;;12.75;6.97;;;;;;;20.79;53.76;100702.56;143737;575;46021;-74
2021/04/28 09:08:01;;;;;;;12.65;7.97;;;;;;;20.82;52.98;100703.28;143737;563;47008;-75
2021/04/28 09:10:30;;;;;;;12.77;6.95;;;;;;;20.81;53.53;100693.59;143731;624;49020;-75
2021/04/28 09:13:06;;;;;;;14.27;7.30;;;;;;;20.82;53.50;100684.59;143736;579;47010;-73
2021/04/28 09:15:48;;;;;;;13.80;7.50;;;;;;;21.04;52.84;100660.75;143735;655;47008;-75
2021/04/28 09:18:34;;;;;;;10.38;6.78;;;;;;;21.29;52.81;100664.28;143740;583;46018;-73
2021/04/28 09:21:01;;;;;;;12.60;6.75;;;;;;;21.27;52.07;100669.75;143738;610;46018;-74
2021/04/28 09:23:35;;;;;;;13.07;7.43;;;;;;;21.06;51.85;100672.16;143741;631;46008;-76
2021/04/28 09:26:18;;;;;;;10.05;6.95;;;;;;;20.92;51.46;100681.16;143738;564;46008;-75
2021/04/28 09:28:53;;;;;;;11.60;7.40;;;;;;;20.73;52.72;100654.97;143740;563;47010;-74
2021/04/28 09:31:20;;;;;;;13.05;6.85;;;;;;;20.77;52.84;100672.44;143739;624;46031;-75
2021/04/28 09:33:56;;;;;;;11.23;6.47;;;;;;;20.67;53.32;100686.50;143736;615;47010;-73
2021/04/28 09:36:44;;;;;;;13.65;6.87;;;;;;;20.53;53.19;100685.69;143740;680;46020;-75
2021/04/28 09:39:18;;;;;;;10.30;6.53;;;;;;;20.66;53.79;100696.34;143739;571;47010;-75
2021/04/28 09:41:52;;;;;;;11.48;6.87;;;;;;;20.45;54.11;100678.22;143738;573;46010;-74
2021/04/28 09:44:30;;;;;;;11.60;7.07;;;;;;;20.49;53.80;100680.66;143737;604;47008;-74
2021/04/28 09:47:21;;;;;;;15.13;7.20;;;;;;;20.50;54.01;100699.22;143735;565;47008;-75
2021/04/28 09:50:07;;;;;;;11.73;6.75;;;;;;;20.46;54.19;100690.59;143743;644;46008;-76
2021/04/28 09:52:54;;;;;;;14.25;6.60;;;;;;;20.44;54.66;100659.69;143734;633;46029;-75
2021/04/28 09:55:21;;;;;;;10.15;6.28;;;;;;;20.63;54.74;100649.41;143739;626;47010;-74
2021/04/28 09:58:44;;;;;;;17.08;7.93;;;;;;;21.11;53.72;100623.78;143738;569;46018;-75
2021/04/28 10:01:11;;;;;;;11.52;7.32;;;;;;;21.30;53.32;100616.09;143738;609;47018;-74
2021/04/28 10:03:49;;;;;;;13.60;7.60;;;;;;;21.63;51.84;100600.34;143736;570;47010;-75
2021/04/28 10:06:49;;;;;;;14.20;7.43;;;;;;;21.64;51.57;100578.88;143737;613;47010;-75
2021/04/28 10:13:09;;;;;;;13.27;7.68;;;;;;;22.09;51.83;100575.41;143737;565;46018;-75
2021/04/28 10:15:37;;;;;;;13.02;7.10;;;;;;;22.01;51.33;100571.63;143735;585;46018;-75
2021/04/28 10:18:08;;;;;;;10.70;6.85;;;;;;;22.11;52.20;100580.63;143739;680;46010;-75
2021/04/28 10:20:40;;;;;;;12.43;6.90;;;;;;;21.68;52.14;100597.31;143738;617;46008;-75
2021/04/28 10:23:11;;;;;;;14.48;7.37;;;;;;;21.51;51.57;100635.97;143738;593;47010;-72
2021/04/28 10:25:40;;;;;;;12.18;6.43;;;;;;;20.89;52.86;100644.03;143738;588;46012;-74
2021/04/28 10:28:10;;;;;;;12.40;7.12;;;;;;;20.74;54.24;100667.34;143737;582;46008;-75
2021/04/28 10:30:44;;;;;;;10.30;6.68;;;;;;;20.25;55.25;100671.63;143738;581;46022;-74
2021/04/28 10:33:22;;;;;;;13.82;7.12;;;;;;;20.07;56.07;100688.91;143740;571;46018;-77
2021/04/28 10:35:51;;;;;;;12.07;6.65;;;;;;;20.10;56.75;100694.00;143736;644;46018;-75
2021/04/28 10:38:26;;;;;;;15.32;6.18;;;;;;;20.68;54.79;100696.22;143737;570;46018;-77
2021/04/28 10:40:55;;;;;;;13.07;7.10;;;;;;;20.91;54.03;100687.50;143740;608;46018;-77
2021/04/28 10:43:44;;;;;;;10.48;6.18;;;;;;;20.95;53.64;100680.97;143738;650;46018;-78
2021/04/28 10:46:24;;;;;;;11.80;7.00;;;;;;;20.99;53.38;100686.06;143738;638;46029;-76
2021/04/28 10:48:53;;;;;;;16.98;7.60;;;;;;;20.84;53.90;100677.34;143739;565;46019;-77
2021/04/28 10:51:39;;;;;;;14.23;7.43;;;;;;;20.89;53.67;100664.53;143737;638;46020;-75
2021/04/28 10:54:29;;;;;;;17.73;9.18;;;;;;;20.81;53.74;100661.56;143741;614;46017;-76
2021/04/28 10:57:08;;;;;;;15.32;8.23;;;;;;;20.88;53.95;100647.66;143735;583;47012;-76
2021/04/28 10:59:42;;;;;;;16.62;8.55;;;;;;;20.83;53.87;100654.28;143739;577;46018;-76
2021/04/28 11:02:12;;;;;;;13.70;7.70;;;;;;;20.75;54.56;100645.03;143738;587;47008;-78
2021/04/28 11:04:45;;;;;;;12.55;8.10;;;;;;;20.85;54.72;100663.06;143740;566;46018;-77
2021/04/28 11:07:14;;;;;;;13.10;7.70;;;;;;;20.64;55.86;100642.28;143737;563;46018;-76
2021/04/28 11:09:42;;;;;;;10.60;7.10;;;;;;;20.87;55.86;100621.09;143738;604;46019;-76
2021/04/28 11:12:09;;;;;;;12.88;7.05;;;;;;;21.20;54.65;100591.09;143734;614;47008;-76
2021/04/28 11:14:46;;;;;;;14.15;7.12;;;;;;;21.53;54.86;100581.50;143740;563;45020;-77
2021/04/28 11:17:31;;;;;;;13.62;8.10;;;;;;;22.05;54.07;100560.59;143738;571;46018;-75
2021/04/28 11:20:22;;;;;;;17.58;9.55;;;;;;;22.34;52.77;100527.16;143739;597;47008;-76
2021/04/28 11:22:50;;;;;;;18.98;9.50;;;;;;;22.56;52.23;100526.28;143741;622;47008;-76
2021/04/28 11:25:18;;;;;;;17.17;10.45;;;;;;;22.81;51.78;100496.53;143738;651;46020;-76
2021/04/28 11:28:03;;;;;;;15.55;9.98;;;;;;;22.95;51.29;100489.16;143736;569;47010;-77
2021/04/28 11:30:37;;;;;;;12.82;7.75;;;;;;;22.55;51.75;100508.53;143738;575;46026;-76
2021/04/28 11:33:34;;;;;;;15.10;7.95;;;;;;;22.28;52.38;100534.69;143738;648;47008;-76